sensor_id;sensor_type;location;lat;lon;timestamp;P1;durP1;ratioP1;P2;durP2;ratioP2
84862;SDS011;75117;43.224;76.776;2024-01-11T00:02:01;93.95;;;17.80;;
84862;SDS011;75117;43.224;76.776;2024-01-11T00:07:04;62.40;;;18.10;;
84862;SDS011;75117;43.224;76.776;2024-01-11T00:12:08;49.17;;;14.10;;
84862;SDS011;75117;43.224;76.776;2024-01-11T00:17:11;74.28;;;15.20;;
84862;SDS011;75117;43.224;76.776;2024-01-11T00:22:14;58.17;;;15.60;;
84862;SDS011;75117;43.224;76.776;2024-01-11T00:27:17;69.38;;;15.27;;
84862;SDS011;75117;43.224;76.776;2024-01-11T00:32:20;56.05;;;14.73;;
84862;SDS011;75117;43.224;76.776;2024-01-11T00:37:23;65.90;;;14.40;;
84862;SDS011;75117;43.224;76.776;2024-01-11T00:42:27;64.53;;;15.68;;
84862;SDS011;75117;43.224;76.776;2024-01-11T00:47:30;67.88;;;14.73;;
84862;SDS011;75117;43.224;76.776;2024-01-11T00:52:33;73.13;;;15.48;;
84862;SDS011;75117;43.224;76.776;2024-01-11T00:57:36;61.22;;;12.95;;
84862;SDS011;75117;43.224;76.776;2024-01-11T01:02:39;65.55;;;13.82;;
84862;SDS011;75117;43.224;76.776;2024-01-11T01:12:45;62.08;;;19.02;;
84862;SDS011;75117;43.224;76.776;2024-01-11T01:17:48;55.72;;;16.55;;
84862;SDS011;75117;43.224;76.776;2024-01-11T01:22:51;52.53;;;14.45;;
84862;SDS011;75117;43.224;76.776;2024-01-11T01:27:54;73.38;;;16.95;;
84862;SDS011;75117;43.224;76.776;2024-01-11T01:32:58;50.20;;;15.02;;
84862;SDS011;75117;43.224;76.776;2024-01-11T01:38:01;47.47;;;15.65;;
84862;SDS011;75117;43.224;76.776;2024-01-11T01:43:08;64.68;;;18.00;;
84862;SDS011;75117;43.224;76.776;2024-01-11T01:48:12;72.13;;;16.25;;
84862;SDS011;75117;43.224;76.776;2024-01-11T01:53:22;66.68;;;15.23;;
84862;SDS011;75117;43.224;76.776;2024-01-11T01:58:27;38.40;;;12.50;;
84862;SDS011;75117;43.224;76.776;2024-01-11T02:03:31;56.95;;;15.20;;
84862;SDS011;75117;43.224;76.776;2024-01-11T02:08:37;49.35;;;11.35;;
84862;SDS011;75117;43.224;76.776;2024-01-11T02:13:43;51.85;;;12.20;;
84862;SDS011;75117;43.224;76.776;2024-01-11T02:18:46;41.15;;;11.57;;
84862;SDS011;75117;43.224;76.776;2024-01-11T02:24:04;61.13;;;12.85;;
84862;SDS011;75117;43.224;76.776;2024-01-11T02:29:09;63.28;;;13.57;;
84862;SDS011;75117;43.224;76.776;2024-01-11T02:34:12;48.28;;;13.57;;
84862;SDS011;75117;43.224;76.776;2024-01-11T02:39:16;53.22;;;13.88;;
84862;SDS011;75117;43.224;76.776;2024-01-11T02:44:21;60.10;;;13.18;;
84862;SDS011;75117;43.224;76.776;2024-01-11T02:49:24;57.65;;;12.18;;
84862;SDS011;75117;43.224;76.776;2024-01-11T02:54:27;73.70;;;13.93;;
84862;SDS011;75117;43.224;76.776;2024-01-11T02:59:30;41.38;;;13.95;;
84862;SDS011;75117;43.224;76.776;2024-01-11T03:04:34;59.50;;;15.73;;
84862;SDS011;75117;43.224;76.776;2024-01-11T03:09:37;96.65;;;23.00;;
84862;SDS011;75117;43.224;76.776;2024-01-11T03:14:40;79.30;;;21.83;;
84862;SDS011;75117;43.224;76.776;2024-01-11T03:19:43;73.75;;;23.63;;
84862;SDS011;75117;43.224;76.776;2024-01-11T03:24:46;77.50;;;24.60;;
84862;SDS011;75117;43.224;76.776;2024-01-11T03:29:49;62.55;;;18.00;;
84862;SDS011;75117;43.224;76.776;2024-01-11T03:34:52;70.65;;;19.60;;
84862;SDS011;75117;43.224;76.776;2024-01-11T03:39:55;76.15;;;20.13;;
84862;SDS011;75117;43.224;76.776;2024-01-11T03:44:58;185.23;;;88.47;;
84862;SDS011;75117;43.224;76.776;2024-01-11T03:50:01;79.45;;;31.10;;
84862;SDS011;75117;43.224;76.776;2024-01-11T03:55:06;72.00;;;20.80;;
84862;SDS011;75117;43.224;76.776;2024-01-11T04:00:09;60.55;;;20.20;;
84862;SDS011;75117;43.224;76.776;2024-01-11T04:05:13;74.63;;;21.33;;
84862;SDS011;75117;43.224;76.776;2024-01-11T04:10:18;70.82;;;25.60;;
84862;SDS011;75117;43.224;76.776;2024-01-11T04:15:22;79.57;;;23.60;;
84862;SDS011;75117;43.224;76.776;2024-01-11T04:20:25;92.15;;;28.65;;
84862;SDS011;75117;43.224;76.776;2024-01-11T04:25:28;95.30;;;31.52;;
84862;SDS011;75117;43.224;76.776;2024-01-11T04:30:31;92.97;;;26.17;;
84862;SDS011;75117;43.224;76.776;2024-01-11T04:40:37;98.85;;;37.30;;
84862;SDS011;75117;43.224;76.776;2024-01-11T04:45:41;130.15;;;48.05;;
84862;SDS011;75117;43.224;76.776;2024-01-11T04:50:44;151.93;;;55.40;;
84862;SDS011;75117;43.224;76.776;2024-01-11T04:55:48;118.95;;;39.75;;
84862;SDS011;75117;43.224;76.776;2024-01-11T05:05:55;101.88;;;34.35;;
84862;SDS011;75117;43.224;76.776;2024-01-11T05:10:58;122.15;;;41.25;;
84862;SDS011;75117;43.224;76.776;2024-01-11T05:16:01;119.22;;;38.90;;
84862;SDS011;75117;43.224;76.776;2024-01-11T05:21:06;115.43;;;35.17;;
84862;SDS011;75117;43.224;76.776;2024-01-11T05:26:10;231.85;;;72.57;;
84862;SDS011;75117;43.224;76.776;2024-01-11T05:31:15;322.55;;;97.43;;
84862;SDS011;75117;43.224;76.776;2024-01-11T05:36:18;189.30;;;81.90;;
84862;SDS011;75117;43.224;76.776;2024-01-11T05:41:21;134.65;;;79.05;;
84862;SDS011;75117;43.224;76.776;2024-01-11T05:46:25;113.22;;;57.13;;
84862;SDS011;75117;43.224;76.776;2024-01-11T05:51:29;104.78;;;37.97;;
84862;SDS011;75117;43.224;76.776;2024-01-11T05:56:32;96.97;;;31.30;;
84862;SDS011;75117;43.224;76.776;2024-01-11T06:01:40;99.70;;;33.50;;
84862;SDS011;75117;43.224;76.776;2024-01-11T06:06:48;85.35;;;34.05;;
84862;SDS011;75117;43.224;76.776;2024-01-11T06:11:52;101.80;;;35.88;;
84862;SDS011;75117;43.224;76.776;2024-01-11T06:16:56;86.13;;;34.58;;
84862;SDS011;75117;43.224;76.776;2024-01-11T06:22:00;89.18;;;30.63;;
84862;SDS011;75117;43.224;76.776;2024-01-11T06:27:05;74.97;;;28.25;;
84862;SDS011;75117;43.224;76.776;2024-01-11T06:32:12;76.40;;;26.00;;
84862;SDS011;75117;43.224;76.776;2024-01-11T06:37:17;67.60;;;21.67;;
84862;SDS011;75117;43.224;76.776;2024-01-11T06:42:20;94.47;;;33.70;;
84862;SDS011;75117;43.224;76.776;2024-01-11T06:47:25;94.47;;;32.67;;
84862;SDS011;75117;43.224;76.776;2024-01-11T06:52:29;76.20;;;29.25;;
84862;SDS011;75117;43.224;76.776;2024-01-11T06:57:33;70.47;;;25.67;;
84862;SDS011;75117;43.224;76.776;2024-01-11T07:02:39;69.15;;;22.90;;
84862;SDS011;75117;43.224;76.776;2024-01-11T07:07:43;55.67;;;21.75;;
84862;SDS011;75117;43.224;76.776;2024-01-11T07:12:46;49.80;;;22.38;;
84862;SDS011;75117;43.224;76.776;2024-01-11T07:17:50;57.95;;;21.50;;
84862;SDS011;75117;43.224;76.776;2024-01-11T07:22:53;53.20;;;23.33;;
84862;SDS011;75117;43.224;76.776;2024-01-11T07:27:56;49.70;;;19.17;;
84862;SDS011;75117;43.224;76.776;2024-01-11T07:32:59;78.05;;;29.30;;
84862;SDS011;75117;43.224;76.776;2024-01-11T07:38:04;64.18;;;21.67;;
84862;SDS011;75117;43.224;76.776;2024-01-11T07:43:09;58.83;;;22.67;;
84862;SDS011;75117;43.224;76.776;2024-01-11T07:48:12;49.95;;;20.45;;
84862;SDS011;75117;43.224;76.776;2024-01-11T07:53:17;255.93;;;98.75;;
84862;SDS011;75117;43.224;76.776;2024-01-11T07:58:23;72.93;;;34.92;;
84862;SDS011;75117;43.224;76.776;2024-01-11T08:03:26;52.10;;;22.75;;
84862;SDS011;75117;43.224;76.776;2024-01-11T08:08:30;78.55;;;35.75;;
84862;SDS011;75117;43.224;76.776;2024-01-11T08:18:36;39.50;;;20.60;;
84862;SDS011;75117;43.224;76.776;2024-01-11T08:23:43;60.83;;;26.80;;
84862;SDS011;75117;43.224;76.776;2024-01-11T08:28:49;46.28;;;21.08;;
84862;SDS011;75117;43.224;76.776;2024-01-11T08:33:53;64.40;;;23.80;;
84862;SDS011;75117;43.224;76.776;2024-01-11T08:38:56;53.35;;;20.33;;
84862;SDS011;75117;43.224;76.776;2024-01-11T08:44:01;77.43;;;30.25;;
84862;SDS011;75117;43.224;76.776;2024-01-11T08:49:07;60.92;;;25.52;;
84862;SDS011;75117;43.224;76.776;2024-01-11T08:54:11;56.67;;;27.83;;
84862;SDS011;75117;43.224;76.776;2024-01-11T08:59:21;59.45;;;25.08;;
84862;SDS011;75117;43.224;76.776;2024-01-11T09:04:28;66.60;;;32.58;;
84862;SDS011;75117;43.224;76.776;2024-01-11T09:09:32;57.88;;;29.08;;
84862;SDS011;75117;43.224;76.776;2024-01-11T09:14:37;59.85;;;26.60;;
84862;SDS011;75117;43.224;76.776;2024-01-11T09:19:43;66.82;;;25.35;;
84862;SDS011;75117;43.224;76.776;2024-01-11T09:29:50;69.63;;;21.90;;
84862;SDS011;75117;43.224;76.776;2024-01-11T09:34:56;57.30;;;24.58;;
84862;SDS011;75117;43.224;76.776;2024-01-11T09:40:01;56.35;;;21.80;;
84862;SDS011;75117;43.224;76.776;2024-01-11T09:45:10;63.10;;;19.80;;
84862;SDS011;75117;43.224;76.776;2024-01-11T09:50:21;55.72;;;23.83;;
84862;SDS011;75117;43.224;76.776;2024-01-11T09:55:28;51.20;;;20.48;;
84862;SDS011;75117;43.224;76.776;2024-01-11T10:00:32;53.58;;;20.85;;
84862;SDS011;75117;43.224;76.776;2024-01-11T10:05:38;50.40;;;20.20;;
84862;SDS011;75117;43.224;76.776;2024-01-11T10:10:43;57.22;;;22.40;;
84862;SDS011;75117;43.224;76.776;2024-01-11T10:15:46;61.85;;;20.60;;
84862;SDS011;75117;43.224;76.776;2024-01-11T10:20:50;57.22;;;22.42;;
84862;SDS011;75117;43.224;76.776;2024-01-11T10:25:59;53.38;;;21.90;;
84862;SDS011;75117;43.224;76.776;2024-01-11T10:31:07;73.97;;;25.90;;
84862;SDS011;75117;43.224;76.776;2024-01-11T10:36:13;77.25;;;26.35;;
84862;SDS011;75117;43.224;76.776;2024-01-11T10:41:18;74.60;;;26.35;;
84862;SDS011;75117;43.224;76.776;2024-01-11T10:46:26;63.05;;;25.42;;
84862;SDS011;75117;43.224;76.776;2024-01-11T10:51:36;83.15;;;26.42;;
84862;SDS011;75117;43.224;76.776;2024-01-11T10:56:42;72.75;;;29.05;;
84862;SDS011;75117;43.224;76.776;2024-01-11T11:01:47;70.45;;;30.35;;
84862;SDS011;75117;43.224;76.776;2024-01-11T11:06:54;55.85;;;16.63;;
84862;SDS011;75117;43.224;76.776;2024-01-11T11:12:02;30.17;;;13.48;;
84862;SDS011;75117;43.224;76.776;2024-01-11T11:17:09;24.08;;;9.23;;
84862;SDS011;75117;43.224;76.776;2024-01-11T11:22:18;21.08;;;9.63;;
84862;SDS011;75117;43.224;76.776;2024-01-11T11:27:22;24.23;;;9.25;;
84862;SDS011;75117;43.224;76.776;2024-01-11T11:32:37;52.15;;;11.77;;
84862;SDS011;75117;43.224;76.776;2024-01-11T11:37:45;24.02;;;9.35;;
84862;SDS011;75117;43.224;76.776;2024-01-11T11:42:51;38.20;;;11.68;;
84862;SDS011;75117;43.224;76.776;2024-01-11T11:47:55;36.97;;;10.07;;
84862;SDS011;75117;43.224;76.776;2024-01-11T11:53:04;38.78;;;11.27;;
84862;SDS011;75117;43.224;76.776;2024-01-11T11:58:08;48.67;;;12.25;;
84862;SDS011;75117;43.224;76.776;2024-01-11T12:03:17;44.10;;;11.38;;
84862;SDS011;75117;43.224;76.776;2024-01-11T12:08:20;36.78;;;11.15;;
84862;SDS011;75117;43.224;76.776;2024-01-11T12:13:25;42.75;;;15.68;;
84862;SDS011;75117;43.224;76.776;2024-01-11T12:18:29;37.00;;;17.45;;
84862;SDS011;75117;43.224;76.776;2024-01-11T12:23:32;20.25;;;8.40;;
84862;SDS011;75117;43.224;76.776;2024-01-11T12:28:37;34.55;;;10.32;;
84862;SDS011;75117;43.224;76.776;2024-01-11T12:33:40;26.58;;;7.93;;
84862;SDS011;75117;43.224;76.776;2024-01-11T12:38:48;29.70;;;8.02;;
84862;SDS011;75117;43.224;76.776;2024-01-11T12:43:51;28.98;;;8.35;;
84862;SDS011;75117;43.224;76.776;2024-01-11T12:48:56;21.45;;;7.93;;
84862;SDS011;75117;43.224;76.776;2024-01-11T12:53:59;13.43;;;5.65;;
84862;SDS011;75117;43.224;76.776;2024-01-11T12:59:05;13.27;;;5.55;;
84862;SDS011;75117;43.224;76.776;2024-01-11T13:04:09;18.17;;;5.90;;
84862;SDS011;75117;43.224;76.776;2024-01-11T13:09:13;8.90;;;5.05;;
84862;SDS011;75117;43.224;76.776;2024-01-11T13:14:18;23.95;;;6.47;;
84862;SDS011;75117;43.224;76.776;2024-01-11T13:19:22;15.48;;;7.10;;
84862;SDS011;75117;43.224;76.776;2024-01-11T13:24:25;10.90;;;5.90;;
84862;SDS011;75117;43.224;76.776;2024-01-11T13:29:28;18.00;;;7.50;;
84862;SDS011;75117;43.224;76.776;2024-01-11T13:34:32;16.40;;;9.55;;
84862;SDS011;75117;43.224;76.776;2024-01-11T13:39:35;17.40;;;7.35;;
84862;SDS011;75117;43.224;76.776;2024-01-11T13:44:39;10.43;;;5.60;;
84862;SDS011;75117;43.224;76.776;2024-01-11T13:49:42;7.82;;;6.05;;
84862;SDS011;75117;43.224;76.776;2024-01-11T13:54:45;15.07;;;7.82;;
84862;SDS011;75117;43.224;76.776;2024-01-11T13:59:48;16.27;;;6.03;;
84862;SDS011;75117;43.224;76.776;2024-01-11T14:04:52;15.65;;;8.50;;
84862;SDS011;75117;43.224;76.776;2024-01-11T14:09:56;10.75;;;4.70;;
84862;SDS011;75117;43.224;76.776;2024-01-11T14:14:59;10.82;;;4.90;;
84862;SDS011;75117;43.224;76.776;2024-01-11T14:20:02;10.13;;;4.65;;
84862;SDS011;75117;43.224;76.776;2024-01-11T14:25:08;5.85;;;3.92;;
84862;SDS011;75117;43.224;76.776;2024-01-11T14:30:14;5.78;;;4.93;;
84862;SDS011;75117;43.224;76.776;2024-01-11T14:35:17;5.07;;;4.03;;
84862;SDS011;75117;43.224;76.776;2024-01-11T14:40:21;3.05;;;2.72;;
84862;SDS011;75117;43.224;76.776;2024-01-11T14:45:24;9.48;;;5.28;;
84862;SDS011;75117;43.224;76.776;2024-01-11T14:50:29;3.50;;;3.03;;
84862;SDS011;75117;43.224;76.776;2024-01-11T14:55:32;3.90;;;3.40;;
84862;SDS011;75117;43.224;76.776;2024-01-11T15:00:37;5.43;;;4.00;;
84862;SDS011;75117;43.224;76.776;2024-01-11T15:05:40;7.57;;;4.97;;
84862;SDS011;75117;43.224;76.776;2024-01-11T15:10:44;5.68;;;4.82;;
84862;SDS011;75117;43.224;76.776;2024-01-11T15:15:51;4.28;;;3.80;;
84862;SDS011;75117;43.224;76.776;2024-01-11T15:20:54;9.50;;;5.43;;
84862;SDS011;75117;43.224;76.776;2024-01-11T15:25:57;6.22;;;4.55;;
84862;SDS011;75117;43.224;76.776;2024-01-11T15:31:00;6.28;;;5.68;;
84862;SDS011;75117;43.224;76.776;2024-01-11T15:36:03;6.10;;;5.45;;
84862;SDS011;75117;43.224;76.776;2024-01-11T15:41:07;5.70;;;4.65;;
84862;SDS011;75117;43.224;76.776;2024-01-11T15:46:10;4.97;;;3.72;;
84862;SDS011;75117;43.224;76.776;2024-01-11T15:51:13;3.72;;;2.85;;
84862;SDS011;75117;43.224;76.776;2024-01-11T15:56:16;3.55;;;2.60;;
84862;SDS011;75117;43.224;76.776;2024-01-11T16:01:20;3.85;;;3.55;;
84862;SDS011;75117;43.224;76.776;2024-01-11T16:06:23;3.97;;;3.67;;
84862;SDS011;75117;43.224;76.776;2024-01-11T16:11:26;5.25;;;3.80;;
84862;SDS011;75117;43.224;76.776;2024-01-11T16:16:31;3.90;;;3.58;;
84862;SDS011;75117;43.224;76.776;2024-01-11T16:21:37;3.75;;;3.03;;
84862;SDS011;75117;43.224;76.776;2024-01-11T16:26:41;4.38;;;3.97;;
84862;SDS011;75117;43.224;76.776;2024-01-11T16:31:44;3.78;;;3.45;;
84862;SDS011;75117;43.224;76.776;2024-01-11T16:36:47;4.43;;;3.90;;
84862;SDS011;75117;43.224;76.776;2024-01-11T16:41:50;7.75;;;4.43;;
84862;SDS011;75117;43.224;76.776;2024-01-11T17:02:02;3.75;;;3.03;;
84862;SDS011;75117;43.224;76.776;2024-01-11T17:07:06;3.60;;;3.30;;
84862;SDS011;75117;43.224;76.776;2024-01-11T17:12:09;3.83;;;3.53;;
84862;SDS011;75117;43.224;76.776;2024-01-11T17:17:12;3.40;;;3.10;;
84862;SDS011;75117;43.224;76.776;2024-01-11T17:22:15;3.55;;;3.00;;
84862;SDS011;75117;43.224;76.776;2024-01-11T17:27:18;5.13;;;3.38;;
84862;SDS011;75117;43.224;76.776;2024-01-11T17:32:21;3.53;;;3.13;;
84862;SDS011;75117;43.224;76.776;2024-01-11T17:37:24;3.80;;;3.08;;
84862;SDS011;75117;43.224;76.776;2024-01-11T17:42:28;4.45;;;4.05;;
84862;SDS011;75117;43.224;76.776;2024-01-11T17:47:31;4.43;;;3.83;;
84862;SDS011;75117;43.224;76.776;2024-01-11T17:52:34;4.93;;;3.75;;
84862;SDS011;75117;43.224;76.776;2024-01-11T17:57:38;7.65;;;3.38;;
84862;SDS011;75117;43.224;76.776;2024-01-11T18:02:41;3.60;;;2.85;;
84862;SDS011;75117;43.224;76.776;2024-01-11T18:07:44;3.95;;;3.55;;
84862;SDS011;75117;43.224;76.776;2024-01-11T18:12:47;6.63;;;6.22;;
84862;SDS011;75117;43.224;76.776;2024-01-11T18:17:50;3.95;;;3.65;;
84862;SDS011;75117;43.224;76.776;2024-01-11T18:22:53;4.25;;;3.95;;
84862;SDS011;75117;43.224;76.776;2024-01-11T18:27:56;3.88;;;3.58;;
84862;SDS011;75117;43.224;76.776;2024-01-11T18:33:00;4.95;;;3.30;;
84862;SDS011;75117;43.224;76.776;2024-01-11T18:38:03;2.80;;;2.60;;
84862;SDS011;75117;43.224;76.776;2024-01-11T18:43:07;3.22;;;3.00;;
84862;SDS011;75117;43.224;76.776;2024-01-11T18:48:10;4.18;;;3.83;;
84862;SDS011;75117;43.224;76.776;2024-01-11T18:53:14;4.93;;;4.43;;
84862;SDS011;75117;43.224;76.776;2024-01-11T18:58:19;4.20;;;3.80;;
84862;SDS011;75117;43.224;76.776;2024-01-11T19:03:23;3.72;;;3.42;;
84862;SDS011;75117;43.224;76.776;2024-01-11T19:08:26;9.15;;;8.35;;
84862;SDS011;75117;43.224;76.776;2024-01-11T19:13:30;3.78;;;3.47;;
84862;SDS011;75117;43.224;76.776;2024-01-11T19:18:33;3.40;;;3.15;;
84862;SDS011;75117;43.224;76.776;2024-01-11T19:23:36;2.85;;;2.63;;
84862;SDS011;75117;43.224;76.776;2024-01-11T19:28:39;3.72;;;3.25;;
84862;SDS011;75117;43.224;76.776;2024-01-11T19:33:42;3.30;;;3.03;;
84862;SDS011;75117;43.224;76.776;2024-01-11T19:38:45;5.32;;;3.38;;
84862;SDS011;75117;43.224;76.776;2024-01-11T19:43:48;2.78;;;2.58;;
84862;SDS011;75117;43.224;76.776;2024-01-11T19:48:51;3.13;;;2.75;;
84862;SDS011;75117;43.224;76.776;2024-01-11T19:53:54;3.83;;;3.53;;
84862;SDS011;75117;43.224;76.776;2024-01-11T19:58:58;3.92;;;3.63;;
84862;SDS011;75117;43.224;76.776;2024-01-11T20:04:02;3.70;;;3.30;;
84862;SDS011;75117;43.224;76.776;2024-01-11T20:09:05;4.43;;;4.10;;
84862;SDS011;75117;43.224;76.776;2024-01-11T20:14:08;5.25;;;4.85;;
84862;SDS011;75117;43.224;76.776;2024-01-11T20:19:14;5.65;;;5.32;;
84862;SDS011;75117;43.224;76.776;2024-01-11T20:24:17;3.35;;;3.05;;
84862;SDS011;75117;43.224;76.776;2024-01-11T20:29:20;4.38;;;4.03;;
84862;SDS011;75117;43.224;76.776;2024-01-11T20:34:23;2.70;;;2.50;;
84862;SDS011;75117;43.224;76.776;2024-01-11T20:39:26;2.83;;;2.63;;
84862;SDS011;75117;43.224;76.776;2024-01-11T20:44:29;4.15;;;3.75;;
84862;SDS011;75117;43.224;76.776;2024-01-11T20:49:32;3.47;;;3.25;;
84862;SDS011;75117;43.224;76.776;2024-01-11T20:54:35;2.83;;;2.60;;
84862;SDS011;75117;43.224;76.776;2024-01-11T20:59:40;3.28;;;3.05;;
84862;SDS011;75117;43.224;76.776;2024-01-11T21:04:45;3.38;;;3.13;;
84862;SDS011;75117;43.224;76.776;2024-01-11T21:09:48;5.63;;;5.15;;
84862;SDS011;75117;43.224;76.776;2024-01-11T21:14:51;3.42;;;3.20;;
84862;SDS011;75117;43.224;76.776;2024-01-11T21:19:54;4.80;;;3.72;;
84862;SDS011;75117;43.224;76.776;2024-01-11T21:24:57;4.65;;;4.35;;
84862;SDS011;75117;43.224;76.776;2024-01-11T21:30:00;3.28;;;2.83;;
84862;SDS011;75117;43.224;76.776;2024-01-11T21:35:05;3.42;;;3.13;;
84862;SDS011;75117;43.224;76.776;2024-01-11T21:40:08;3.90;;;3.70;;
84862;SDS011;75117;43.224;76.776;2024-01-11T21:45:12;3.30;;;3.03;;
84862;SDS011;75117;43.224;76.776;2024-01-11T21:50:15;4.30;;;3.90;;
84862;SDS011;75117;43.224;76.776;2024-01-11T21:55:18;3.42;;;3.13;;
84862;SDS011;75117;43.224;76.776;2024-01-11T22:00:21;3.38;;;3.08;;
84862;SDS011;75117;43.224;76.776;2024-01-11T22:05:24;5.63;;;3.67;;
84862;SDS011;75117;43.224;76.776;2024-01-11T22:10:27;3.90;;;3.42;;
84862;SDS011;75117;43.224;76.776;2024-01-11T22:15:30;4.13;;;3.83;;
84862;SDS011;75117;43.224;76.776;2024-01-11T22:20:33;4.18;;;3.80;;
84862;SDS011;75117;43.224;76.776;2024-01-11T22:25:36;5.10;;;4.30;;
84862;SDS011;75117;43.224;76.776;2024-01-11T22:30:38;6.68;;;5.43;;
84862;SDS011;75117;43.224;76.776;2024-01-11T22:35:42;6.00;;;5.43;;
84862;SDS011;75117;43.224;76.776;2024-01-11T22:40:45;13.68;;;5.60;;
84862;SDS011;75117;43.224;76.776;2024-01-11T22:45:49;7.75;;;5.85;;
84862;SDS011;75117;43.224;76.776;2024-01-11T22:50:52;9.73;;;5.65;;
84862;SDS011;75117;43.224;76.776;2024-01-11T22:55:55;7.45;;;5.68;;
84862;SDS011;75117;43.224;76.776;2024-01-11T23:00:58;8.90;;;5.93;;
84862;SDS011;75117;43.224;76.776;2024-01-11T23:06:01;7.15;;;6.47;;
84862;SDS011;75117;43.224;76.776;2024-01-11T23:11:04;6.68;;;6.07;;
84862;SDS011;75117;43.224;76.776;2024-01-11T23:16:07;12.95;;;6.55;;
84862;SDS011;75117;43.224;76.776;2024-01-11T23:21:10;8.40;;;6.35;;
84862;SDS011;75117;43.224;76.776;2024-01-11T23:26:13;11.02;;;7.68;;
84862;SDS011;75117;43.224;76.776;2024-01-11T23:31:16;12.18;;;8.27;;
84862;SDS011;75117;43.224;76.776;2024-01-11T23:36:19;10.45;;;6.53;;
84862;SDS011;75117;43.224;76.776;2024-01-11T23:41:22;6.22;;;5.55;;
84862;SDS011;75117;43.224;76.776;2024-01-11T23:46:25;9.38;;;7.25;;
84862;SDS011;75117;43.224;76.776;2024-01-11T23:51:28;18.00;;;14.13;;
84862;SDS011;75117;43.224;76.776;2024-01-11T23:56:31;13.30;;;10.40;;
